Time;durP1;ratioP1;P1;durP2;ratioP2;P2;SDS_P1;SDS_P2;PMS_P1;PMS_P2;Temp;Humidity;BMP_temperature;BMP_pressure;BME280_temperature;BME280_humidity;BME280_pressure;Samples;Min_cycle;Max_cycle;Signal;HPM_P1;HPM_P2
2023/06/14 00:01:21;;;;;;;6.93;3.00;;;19.80;55.90;;;;;;5075608;28;20039;-72
2023/06/14 00:03:48;;;;;;;;;;;19.70;56.10;;;;;;5092078;28;20040;-73
2023/06/14 00:06:14;;;;;;;6.57;2.90;;;19.60;56.10;;;;;;5076648;28;19924;-74
2023/06/14 00:08:40;;;;;;;6.05;2.53;;;19.60;56.30;;;;;;5076645;28;20048;-73
2023/06/14 00:11:06;;;;;;;7.05;2.60;;;19.60;56.60;;;;;;5063483;28;20047;-73
2023/06/14 00:13:32;;;;;;;7.07;2.65;;;19.50;56.80;;;;;;5066308;28;20055;-73
2023/06/14 00:15:58;;;;;;;7.65;2.72;;;19.50;57.00;;;;;;5090886;28;20048;-74
2023/06/14 00:18:24;;;;;;;6.38;2.78;;;19.50;57.20;;;;;;5077221;28;20143;-73
2023/06/14 00:20:51;;;;;;;9.10;2.90;;;19.40;57.30;;;;;;5068090;28;20078;-73
2023/06/14 00:23:17;;;;;;;7.35;2.72;;;19.30;57.60;;;;;;5064740;28;20455;-73
2023/06/14 00:25:43;;;;;;;6.18;2.80;;;19.30;57.80;;;;;;5064414;28;20056;-72
2023/06/14 00:28:09;;;;;;;5.53;2.80;;;19.20;57.90;;;;;;5084806;28;20044;-72
2023/06/14 00:30:34;;;;;;;10.75;2.80;;;19.20;58.20;;;;;;5089165;27;21426;-73
2023/06/14 00:33:01;;;;;;;5.35;3.10;;;19.20;58.30;;;;;;5075736;28;20039;-72
2023/06/14 00:35:26;;;;;;;5.95;2.90;;;19.20;58.50;;;;;;5070735;28;20110;-73
2023/06/14 00:37:54;;;;;;;7.07;3.20;;;19.20;58.50;;;;;;5067543;28;20486;-73
2023/06/14 00:40:20;;;;;;;7.18;2.60;;;19.10;58.70;;;;;;5088788;28;20056;-74
2023/06/14 00:42:46;;;;;;;6.93;2.88;;;19.10;58.90;;;;;;5062122;28;20061;-72
2023/06/14 00:45:12;;;;;;;5.90;2.90;;;19.00;59.10;;;;;;5065762;28;20517;-72
2023/06/14 00:47:38;;;;;;;9.90;3.00;;;18.90;59.20;;;;;;5101410;27;20039;-73
2023/06/14 00:50:07;;;;;;;8.27;2.90;;;18.90;59.20;;;;;;5070396;28;20056;-73
2023/06/14 00:52:34;;;;;;;8.60;3.03;;;18.80;59.40;;;;;;5084298;28;20043;-73
2023/06/14 00:55:00;;;;;;;6.05;2.45;;;18.80;59.80;;;;;;5084753;28;20043;-72
2023/06/14 00:57:27;;;;;;;6.20;2.72;;;18.80;59.90;;;;;;5088012;28;20036;-73
2023/06/14 00:59:52;;;;;;;6.30;2.47;;;18.70;59.90;;;;;;5081908;28;20043;-72
2023/06/14 01:02:18;;;;;;;7.40;2.70;;;18.60;59.90;;;;;;5090960;28;20058;-73
2023/06/14 01:04:47;;;;;;;7.03;2.80;;;18.60;60.40;;;;;;5069329;28;20040;-72
2023/06/14 01:07:43;;;;;;;4.78;2.72;;;18.50;60.60;;;;;;5087289;28;20126;-73
2023/06/14 01:10:27;;;;;;;8.50;2.88;;;18.60;61.10;;;;;;5083278;28;20048;-75
2023/06/14 01:12:55;;;;;;;4.95;2.70;;;18.50;60.90;;;;;;5060904;28;20051;-72
2023/06/14 01:15:23;;;;;;;6.68;2.60;;;18.50;61.10;;;;;;5068977;28;20179;-72
2023/06/14 01:17:53;;;;;;;8.38;2.88;;;18.50;61.20;;;;;;5091852;27;20578;-73
2023/06/14 01:20:28;;;;;;;5.63;2.90;;;18.50;61.30;;;;;;5068070;28;20135;-73
2023/06/14 01:22:54;;;;;;;4.63;2.80;;;18.50;61.60;;;;;;5105745;28;20079;-73
2023/06/14 01:25:22;;;;;;;5.10;2.57;;;18.50;61.70;;;;;;5087541;28;20040;-72
2023/06/14 01:27:57;;;;;;;7.25;3.00;;;18.40;62.40;;;;;;5087197;28;20064;-73
2023/06/14 01:30:25;;;;;;;7.00;2.70;;;18.40;62.00;;;;;;5068908;28;20410;-73
2023/06/14 01:32:52;;;;;;;4.95;2.67;;;18.30;62.00;;;;;;5082295;28;20080;-73
2023/06/14 01:35:18;;;;;;;6.97;3.17;;;18.20;62.40;;;;;;5067002;28;20562;-73
2023/06/14 01:37:46;;;;;;;12.63;3.20;;;18.20;62.60;;;;;;5068889;28;20040;-72
2023/06/14 01:40:14;;;;;;;8.65;3.22;;;18.20;62.60;;;;;;5095555;28;20046;-72
2023/06/14 01:42:40;;;;;;;6.82;3.22;;;18.20;62.80;;;;;;5065362;28;20100;-74
2023/06/14 01:45:07;;;;;;;6.50;2.50;;;18.10;63.00;;;;;;5088133;28;20080;-72
2023/06/14 01:47:35;;;;;;;7.93;3.10;;;18.10;63.30;;;;;;5065867;28;20482;-73
2023/06/14 01:50:01;;;;;;;4.35;2.60;;;18.10;64.00;;;;;;5075150;28;20146;-73
2023/06/14 01:52:27;;;;;;;10.93;3.00;;;18.10;63.50;;;;;;5088294;28;20055;-73
2023/06/14 01:54:52;;;;;;;9.73;2.75;;;18.00;63.70;;;;;;5070639;28;20046;-72
2023/06/14 01:57:20;;;;;;;5.68;2.72;;;18.00;63.90;;;;;;5085191;28;20132;-73
2023/06/14 01:59:49;;;;;;;7.35;3.35;;;17.90;64.20;;;;;;5087966;28;20110;-73
2023/06/14 02:02:15;;;;;;;6.05;2.67;;;17.90;64.50;;;;;;5073905;27;20143;-73
2023/06/14 02:04:41;;;;;;;6.45;2.67;;;17.90;64.70;;;;;;5091080;28;20165;-73
2023/06/14 02:07:07;;;;;;;7.25;3.00;;;17.80;64.70;;;;;;5075967;28;21812;-73
2023/06/14 02:09:34;;;;;;;5.85;2.95;;;17.80;64.90;;;;;;5086704;28;20589;-72
2023/06/14 02:12:01;;;;;;;7.30;3.05;;;17.70;65.20;;;;;;5106961;27;20061;-72
2023/06/14 02:14:26;;;;;;;6.22;2.88;;;17.70;65.20;;;;;;5076864;28;20103;-72
2023/06/14 02:16:53;;;;;;;7.85;3.58;;;17.60;65.60;;;;;;5074708;28;20458;-73
2023/06/14 02:19:20;;;;;;;6.10;2.77;;;17.60;65.80;;;;;;5072349;28;20129;-71
2023/06/14 02:21:46;;;;;;;6.20;3.00;;;17.60;66.20;;;;;;5083805;28;20101;-73
2023/06/14 02:24:12;;;;;;;9.63;3.00;;;17.50;66.80;;;;;;5087568;28;20056;-73
2023/06/14 02:26:38;;;;;;;6.35;2.97;;;17.60;66.50;;;;;;5080543;28;20072;-72
2023/06/14 02:29:05;;;;;;;10.85;3.25;;;17.40;66.80;;;;;;5100121;27;20672;-72
2023/06/14 02:31:32;;;;;;;6.10;2.88;;;17.40;67.00;;;;;;5091869;28;20509;-72
2023/06/14 02:33:58;;;;;;;6.38;3.35;;;17.40;67.40;;;;;;5090489;28;20054;-72
2023/06/14 02:36:24;;;;;;;5.90;3.10;;;17.30;67.90;;;;;;5088732;28;20491;-72
2023/06/14 02:38:50;;;;;;;10.20;3.25;;;17.40;68.10;;;;;;5074979;28;20108;-72
2023/06/14 02:41:16;;;;;;;7.28;3.00;;;17.30;68.30;;;;;;5076171;28;20043;-72
2023/06/14 02:43:41;;;;;;;6.85;3.30;;;17.30;68.30;;;;;;5074062;28;20046;-73
2023/06/14 02:46:07;;;;;;;5.85;3.00;;;17.20;68.80;;;;;;5082739;28;20132;-72
2023/06/14 02:48:33;;;;;;;7.65;3.03;;;17.20;68.90;;;;;;5104074;27;20135;-72
2023/06/14 02:50:59;;;;;;;7.25;2.95;;;17.20;69.30;;;;;;5089733;28;20228;-72
2023/06/14 02:53:24;;;;;;;5.95;3.17;;;17.10;69.70;;;;;;5093213;28;20414;-72
2023/06/14 02:55:50;;;;;;;6.65;3.17;;;17.10;69.90;;;;;;5071709;28;20058;-72
2023/06/14 02:58:15;;;;;;;5.50;3.20;;;17.10;70.30;;;;;;5094819;28;20083;-72
2023/06/14 03:00:42;;;;;;;6.95;3.03;;;17.10;70.40;;;;;;5071082;28;20048;-73
2023/06/14 03:03:13;;;;;;;6.60;3.30;;;17.10;70.80;;;;;;5066727;28;20048;-74
2023/06/14 03:05:49;;;;;;;7.38;3.00;;;17.00;70.90;;;;;;5070543;28;20211;-72
2023/06/14 03:08:19;;;;;;;6.22;3.15;;;17.00;71.10;;;;;;5096144;28;20082;-71
2023/06/14 03:10:48;;;;;;;5.40;3.30;;;16.90;71.50;;;;;;5062797;28;20063;-72
2023/06/14 03:13:15;;;;;;;6.60;3.53;;;16.90;71.60;;;;;;5069614;28;20036;-74
2023/06/14 03:15:44;;;;;;;;;;;16.90;71.90;;;;;;5080473;28;20106;-73
2023/06/14 03:18:11;;;;;;;7.57;3.03;;;16.90;72.50;;;;;;5063563;28;20566;-72
2023/06/14 03:20:38;;;;;;;4.82;3.47;;;16.80;72.60;;;;;;5093571;27;20050;-72
2023/06/14 03:23:05;;;;;;;6.25;3.25;;;16.80;72.70;;;;;;5095175;27;20130;-73
2023/06/14 03:25:32;;;;;;;6.85;3.47;;;16.80;73.10;;;;;;5068836;28;20078;-73
2023/06/14 03:27:58;;;;;;;6.03;3.40;;;16.80;73.50;;;;;;5084717;28;20036;-72
2023/06/14 03:30:24;;;;;;;5.38;3.45;;;16.80;73.70;;;;;;5089769;28;20051;-73
2023/06/14 03:32:52;;;;;;;7.70;3.30;;;16.80;73.80;;;;;;5093531;27;20111;-73
2023/06/14 03:35:18;;;;;;;6.47;3.63;;;16.80;74.40;;;;;;5067115;28;20059;-72
2023/06/14 03:37:45;;;;;;;8.77;3.55;;;16.70;74.50;;;;;;5071269;28;20055;-72
2023/06/14 03:40:13;;;;;;;4.95;3.28;;;16.70;74.80;;;;;;5062176;28;20094;-72
2023/06/14 03:42:39;;;;;;;7.63;3.30;;;16.80;75.00;;;;;;5066545;28;20102;-73
2023/06/14 03:45:06;;;;;;;4.47;3.20;;;16.70;75.10;;;;;;5107716;27;20046;-72
2023/06/14 03:47:32;;;;;;;8.95;3.30;;;16.70;75.40;;;;;;5081108;28;20043;-72
2023/06/14 03:49:58;;;;;;;5.57;3.13;;;16.70;75.80;;;;;;5094076;28;20066;-73
2023/06/14 03:52:24;;;;;;;5.75;3.10;;;16.70;75.90;;;;;;5070166;28;20056;-71
2023/06/14 03:54:51;;;;;;;4.57;3.17;;;16.70;76.20;;;;;;5090719;28;20063;-71
2023/06/14 03:57:17;;;;;;;7.30;3.42;;;16.80;76.20;;;;;;5082138;28;20137;-72
2023/06/14 03:59:43;;;;;;;5.90;3.42;;;16.80;76.40;;;;;;5076969;28;20051;-72
2023/06/14 04:02:11;;;;;;;6.35;3.40;;;16.80;76.50;;;;;;5096217;28;20526;-72
2023/06/14 04:04:37;;;;;;;9.80;3.65;;;16.80;77.40;;;;;;5080284;28;20784;-73
2023/06/14 04:07:03;;;;;;;7.15;3.67;;;16.90;76.90;;;;;;5080041;28;20040;-73
2023/06/14 04:09:32;;;;;;;7.07;3.33;;;16.90;77.10;;;;;;5082700;28;20127;-72
2023/06/14 04:11:58;;;;;;;9.70;4.05;;;16.90;77.20;;;;;;5102575;27;20138;-73
2023/06/14 04:14:23;;;;;;;6.88;3.55;;;17.00;77.10;;;;;;5095049;28;20061;-71
2023/06/14 04:16:49;;;;;;;5.97;3.53;;;17.00;77.30;;;;;;5086847;28;20047;-72
2023/06/14 04:19:15;;;;;;;11.45;4.03;;;17.00;77.60;;;;;;5090254;28;20063;-72
2023/06/14 04:21:41;;;;;;;7.00;3.75;;;17.00;77.90;;;;;;5076907;28;20040;-72
2023/06/14 04:24:12;;;;;;;7.05;3.83;;;17.10;78.10;;;;;;5077266;28;20043;-72
2023/06/14 04:26:44;;;;;;;6.88;3.72;;;17.10;78.10;;;;;;5080733;28;20047;-72
2023/06/14 04:29:14;;;;;;;6.65;3.20;;;17.10;78.20;;;;;;5064741;28;20058;-73
2023/06/14 04:31:44;;;;;;;5.18;3.20;;;17.10;78.00;;;;;;5070758;28;20044;-72
2023/06/14 04:34:15;;;;;;;5.82;3.08;;;17.20;78.90;;;;;;5091065;28;20043;-72
2023/06/14 04:36:47;;;;;;;8.55;3.60;;;17.20;78.00;;;;;;5092873;27;21010;-72
2023/06/14 04:39:13;;;;;;;6.25;3.55;;;17.30;77.80;;;;;;5089313;28;20047;-72
2023/06/14 04:41:38;;;;;;;7.85;3.88;;;17.30;77.70;;;;;;5062875;28;20611;-73
2023/06/14 04:44:04;;;;;;;7.53;3.58;;;17.40;78.00;;;;;;5097958;27;20051;-72
2023/06/14 04:46:31;;;;;;;4.65;3.70;;;17.40;78.10;;;;;;5074509;28;20142;-72
2023/06/14 04:49:02;;;;;;;6.65;3.63;;;17.50;78.00;;;;;;5083375;28;20044;-74
2023/06/14 04:51:29;;;;;;;8.93;3.80;;;17.60;78.10;;;;;;5069646;28;20055;-72
2023/06/14 04:53:59;;;;;;;8.63;3.58;;;17.70;78.00;;;;;;5099592;27;20055;-73
2023/06/14 04:56:26;;;;;;;6.50;3.53;;;17.70;77.90;;;;;;5081072;28;20206;-73
2023/06/14 04:58:52;;;;;;;7.93;4.13;;;17.80;77.40;;;;;;5090183;28;20498;-72
2023/06/14 05:01:19;;;;;;;9.32;3.65;;;17.80;77.60;;;;;;5084283;28;20043;-72
2023/06/14 05:03:48;;;;;;;7.35;3.63;;;17.90;77.20;;;;;;5079824;28;20048;-72
2023/06/14 05:06:14;;;;;;;6.35;3.65;;;17.90;77.10;;;;;;5091202;28;20118;-72
2023/06/14 05:08:40;;;;;;;7.22;3.60;;;18.00;77.00;;;;;;5077789;28;20172;-73
2023/06/14 05:11:05;;;;;;;5.65;3.60;;;18.00;77.10;;;;;;5073542;28;20051;-72
2023/06/14 05:13:32;;;;;;;6.22;3.85;;;18.10;77.00;;;;;;5091894;28;20050;-72
2023/06/14 05:15:59;;;;;;;5.78;3.47;;;18.10;76.70;;;;;;5064307;28;20051;-73
2023/06/14 05:18:25;;;;;;;6.28;3.85;;;18.20;76.60;;;;;;5061079;28;20048;-75
2023/06/14 05:20:51;;;;;;;6.53;4.00;;;18.30;76.50;;;;;;5087016;28;20510;-73
2023/06/14 05:23:16;;;;;;;9.23;3.85;;;18.30;76.70;;;;;;5059028;28;20055;-73
2023/06/14 05:25:46;;;;;;;5.65;3.63;;;18.40;76.40;;;;;;5088423;28;20028;-73
2023/06/14 05:28:12;;;;;;;7.47;3.42;;;18.40;76.10;;;;;;5060145;28;20551;-72
2023/06/14 05:30:42;;;;;;;8.57;4.00;;;18.50;76.00;;;;;;5083031;28;20028;-72
2023/06/14 05:33:07;;;;;;;12.00;4.05;;;18.50;75.60;;;;;;5104378;28;20090;-70
2023/06/14 05:35:33;;;;;;;7.00;3.80;;;18.60;75.70;;;;;;5083880;28;20873;-71
2023/06/14 05:37:59;;;;;;;5.68;3.88;;;18.70;75.50;;;;;;5057328;28;20036;-72
2023/06/14 05:40:25;;;;;;;9.75;3.90;;;18.70;75.10;;;;;;5080049;28;20054;-71
2023/06/14 05:42:51;;;;;;;6.15;3.40;;;18.80;75.20;;;;;;5079926;28;20075;-70
2023/06/14 05:45:17;;;;;;;11.20;3.85;;;18.80;74.80;;;;;;5086348;28;20945;-71
2023/06/14 05:47:42;;;;;;;4.65;3.45;;;18.90;74.90;;;;;;5081127;28;20055;-70
2023/06/14 05:50:09;;;;;;;9.07;3.60;;;19.00;74.60;;;;;;5091374;28;20146;-72
2023/06/14 05:52:35;;;;;;;8.43;3.77;;;19.10;74.20;;;;;;5063386;28;20511;-70
2023/06/14 05:55:01;;;;;;;4.88;3.65;;;19.10;74.20;;;;;;5072815;28;20043;-72
2023/06/14 05:57:27;;;;;;;8.43;3.40;;;19.20;74.00;;;;;;5087949;28;20044;-73
2023/06/14 05:59:53;;;;;;;5.82;3.25;;;19.20;73.20;;;;;;5084950;28;20077;-72
2023/06/14 06:02:18;;;;;;;5.53;3.38;;;19.20;73.20;;;;;;5079453;28;20134;-73
2023/06/14 06:04:44;;;;;;;8.30;3.65;;;19.30;73.30;;;;;;5060199;28;20131;-72
2023/06/14 06:07:09;;;;;;;5.97;3.20;;;19.30;72.60;;;;;;5084146;28;20094;-72
2023/06/14 06:09:35;;;;;;;6.20;3.30;;;19.40;72.70;;;;;;5101390;28;20439;-72
2023/06/14 06:12:01;;;;;;;4.90;3.20;;;19.50;72.00;;;;;;5084586;28;20043;-73
2023/06/14 06:14:27;;;;;;;5.60;3.00;;;19.60;71.90;;;;;;5080614;28;20032;-72
2023/06/14 06:16:54;;;;;;;7.10;3.15;;;19.60;71.90;;;;;;5059429;28;20047;-72
2023/06/14 06:19:20;;;;;;;6.80;3.10;;;19.70;71.20;;;;;;5064674;28;20067;-72
2023/06/14 06:21:45;;;;;;;5.72;2.97;;;19.80;71.20;;;;;;5083753;28;20119;-71
2023/06/14 06:24:11;;;;;;;8.73;3.33;;;19.90;71.40;;;;;;5081669;28;20048;-71
2023/06/14 06:26:37;;;;;;;4.90;3.22;;;20.00;71.20;;;;;;5068270;28;20044;-72
2023/06/14 06:29:03;;;;;;;6.82;3.30;;;20.00;70.50;;;;;;5079516;28;20658;-71
2023/06/14 06:31:28;;;;;;;6.53;3.30;;;20.10;70.30;;;;;;5069927;28;20052;-72
2023/06/14 06:33:55;;;;;;;6.72;3.03;;;20.20;70.10;;;;;;5090312;28;20074;-71
2023/06/14 06:36:21;;;;;;;4.17;3.17;;;20.30;69.50;;;;;;5059827;28;20062;-72
2023/06/14 06:38:50;;;;;;;7.40;3.22;;;20.30;69.00;;;;;;5093245;28;20170;-72
2023/06/14 06:41:15;;;;;;;5.88;2.63;;;20.30;69.20;;;;;;5079860;27;20039;-73
2023/06/14 06:43:41;;;;;;;6.28;3.38;;;20.40;69.00;;;;;;5067405;28;20066;-74
2023/06/14 06:46:07;;;;;;;5.40;2.75;;;20.50;69.20;;;;;;5069686;28;20395;-72
2023/06/14 06:48:33;;;;;;;7.53;2.88;;;20.50;69.20;;;;;;5065753;28;20053;-71
2023/06/14 06:50:58;;;;;;;5.07;2.80;;;20.60;69.50;;;;;;5110237;27;20051;-72
2023/06/14 06:53:24;;;;;;;7.13;2.80;;;20.70;68.40;;;;;;5080988;28;20047;-71
2023/06/14 06:55:50;;;;;;;5.45;2.58;;;20.70;68.60;;;;;;5072271;28;20475;-72
2023/06/14 06:58:16;;;;;;;2.55;2.30;;;20.80;67.90;;;;;;5097146;27;20043;-72
2023/06/14 07:00:41;;;;;;;5.53;3.00;;;20.80;67.80;;;;;;5080490;28;20173;-72
2023/06/14 07:03:07;;;;;;;5.28;2.80;;;20.80;67.30;;;;;;5082292;28;20623;-71
2023/06/14 07:05:32;;;;;;;7.05;3.22;;;20.80;67.70;;;;;;5064153;27;20190;-71
2023/06/14 07:07:58;;;;;;;5.35;2.88;;;20.90;67.70;;;;;;5061908;28;20047;-72
2023/06/14 07:10:24;;;;;;;21.48;3.53;;;21.00;67.30;;;;;;5108094;27;20047;-71
2023/06/14 07:12:50;;;;;;;5.88;2.95;;;21.00;67.40;;;;;;5068270;27;20838;-73
2023/06/14 07:15:16;;;;;;;7.22;2.90;;;21.10;67.50;;;;;;5085070;28;20063;-71
2023/06/14 07:17:42;;;;;;;7.00;3.00;;;21.20;67.60;;;;;;5099657;27;20499;-71
2023/06/14 07:20:11;;;;;;;5.78;2.60;;;21.20;66.50;;;;;;5092521;27;20054;-69
2023/06/14 07:22:41;;;;;;;7.18;2.90;;;21.20;66.70;;;;;;5072240;27;20122;-72
2023/06/14 07:25:09;;;;;;;14.63;3.22;;;21.30;66.20;;;;;;5076974;28;20054;-70
2023/06/14 07:27:34;;;;;;;;;;;21.40;65.90;;;;;;5076144;28;20078;-72
2023/06/14 07:30:00;;;;;;;5.33;2.60;;;21.40;65.80;;;;;;5075699;28;20343;-71
2023/06/14 07:32:26;;;;;;;3.92;2.53;;;21.50;65.00;;;;;;5074596;28;20047;-71
2023/06/14 07:34:51;;;;;;;7.00;2.70;;;21.50;64.50;;;;;;5095496;28;20044;-71
2023/06/14 07:37:17;;;;;;;27.55;3.33;;;21.60;64.80;;;;;;5062596;28;20047;-70
2023/06/14 07:39:42;;;;;;;7.65;2.63;;;21.60;64.70;;;;;;5076518;28;20048;-70
2023/06/14 07:42:08;;;;;;;6.35;2.40;;;21.70;63.60;;;;;;5078273;28;20055;-69
2023/06/14 07:44:34;;;;;;;8.88;2.38;;;21.80;63.50;;;;;;5066712;28;20048;-70
2023/06/14 07:46:59;;;;;;;3.42;2.20;;;21.90;63.00;;;;;;5106913;27;20076;-71
2023/06/14 07:49:26;;;;;;;4.50;2.33;;;21.90;62.30;;;;;;5078760;28;20082;-71
2023/06/14 07:51:51;;;;;;;6.45;2.33;;;22.00;62.20;;;;;;5077501;28;20440;-71
2023/06/14 07:54:17;;;;;;;11.30;2.72;;;22.00;62.00;;;;;;5077034;28;20063;-73
2023/06/14 07:56:43;;;;;;;3.83;2.20;;;22.10;62.10;;;;;;5095067;28;20100;-72
2023/06/14 07:59:10;;;;;;;3.88;2.40;;;22.10;62.30;;;;;;5094975;28;20150;-72
2023/06/14 08:01:35;;;;;;;11.38;2.58;;;22.20;62.50;;;;;;5092945;28;20080;-74
2023/06/14 08:04:01;;;;;;;4.43;2.20;;;22.20;62.90;;;;;;5099351;27;21688;-71
2023/06/14 08:06:27;;;;;;;14.80;2.67;;;22.30;62.10;;;;;;5067690;28;20447;-70
2023/06/14 08:08:53;;;;;;;7.35;2.35;;;22.40;62.00;;;;;;5093408;28;20039;-71
2023/06/14 08:11:18;;;;;;;7.05;2.00;;;22.40;61.10;;;;;;5066499;28;20224;-71
2023/06/14 08:13:44;;;;;;;5.43;2.10;;;22.50;60.50;;;;;;5077233;28;20035;-70
2023/06/14 08:16:10;;;;;;;5.80;2.15;;;22.60;60.40;;;;;;5077677;28;20043;-70
2023/06/14 08:18:36;;;;;;;6.50;2.30;;;22.60;59.80;;;;;;5081990;28;20090;-71
2023/06/14 08:21:02;;;;;;;5.63;1.95;;;22.70;59.80;;;;;;5077074;28;20123;-71
2023/06/14 08:23:28;;;;;;;5.20;2.05;;;22.70;59.40;;;;;;5069773;28;20062;-71
2023/06/14 08:25:54;;;;;;;4.63;2.10;;;22.80;58.90;;;;;;5074773;28;20039;-71
2023/06/14 08:28:20;;;;;;;5.85;2.28;;;22.80;59.30;;;;;;5070352;28;20051;-71
2023/06/14 08:30:46;;;;;;;6.53;2.47;;;22.90;60.60;;;;;;5093137;28;20055;-71
2023/06/14 08:33:11;;;;;;;3.60;2.20;;;23.00;59.00;;;;;;5092452;28;20075;-72
2023/06/14 08:35:39;;;;;;;5.95;2.03;;;23.00;58.90;;;;;;5073941;28;20039;-71
2023/06/14 08:38:04;;;;;;;4.43;1.88;;;23.10;58.50;;;;;;5075027;28;20059;-69
2023/06/14 08:40:31;;;;;;;5.88;2.00;;;23.00;58.10;;;;;;5092873;28;20539;-69
2023/06/14 08:42:57;;;;;;;5.22;1.95;;;23.10;57.80;;;;;;5077438;28;20067;-70
2023/06/14 08:45:23;;;;;;;3.55;1.83;;;23.10;57.30;;;;;;5083879;28;20611;-74
2023/06/14 08:47:51;;;;;;;4.60;2.00;;;23.10;57.80;;;;;;5063403;28;20123;-73
2023/06/14 08:50:22;;;;;;;9.23;2.28;;;23.20;57.50;;;;;;5094731;28;20062;-73
2023/06/14 08:52:52;;;;;;;4.82;1.90;;;23.20;57.50;;;;;;5092391;28;20510;-73
2023/06/14 08:55:19;;;;;;;4.65;1.70;;;23.20;56.70;;;;;;5070624;28;20043;-74
2023/06/14 08:57:47;;;;;;;4.00;1.73;;;23.30;56.20;;;;;;5092568;28;20043;-73
2023/06/14 09:00:14;;;;;;;4.25;1.83;;;23.20;56.20;;;;;;5099202;28;20043;-74
2023/06/14 09:02:46;;;;;;;5.07;1.80;;;23.40;56.80;;;;;;5099846;28;20082;-73
2023/06/14 09:05:17;;;;;;;10.82;2.55;;;23.40;56.50;;;;;;5098739;28;20892;-73
2023/06/14 09:07:44;;;;;;;4.72;1.73;;;23.40;55.90;;;;;;5074838;28;20055;-73
2023/06/14 09:10:14;;;;;;;6.43;2.03;;;23.50;55.70;;;;;;5094433;28;20047;-73
2023/06/14 09:12:40;;;;;;;17.73;3.17;;;23.50;55.90;;;;;;5091967;28;20051;-74
2023/06/14 09:15:08;;;;;;;3.50;1.80;;;23.50;56.10;;;;;;5091401;28;20047;-73
2023/06/14 09:17:35;;;;;;;5.88;2.15;;;23.60;56.40;;;;;;5095912;28;20723;-74
2023/06/14 09:20:17;;;;;;;;;;;23.70;55.80;;;;;;5099554;28;20053;-73
2023/06/14 09:22:43;;;;;;;5.22;1.90;;;23.70;55.50;;;;;;5095794;28;20422;-73
2023/06/14 09:25:09;;;;;;;5.88;2.08;;;23.80;55.40;;;;;;5093195;28;20047;-71
2023/06/14 09:27:35;;;;;;;10.45;2.35;;;23.80;55.10;;;;;;5076946;28;20058;-75
2023/06/14 09:30:03;;;;;;;3.33;1.77;;;23.90;54.60;;;;;;5076755;28;20430;-72
2023/06/14 09:32:28;;;;;;;5.05;1.80;;;23.90;54.30;;;;;;5096838;28;20059;-73
2023/06/14 09:34:55;;;;;;;3.30;2.05;;;23.90;54.10;;;;;;5093094;28;20035;-73
2023/06/14 09:37:29;;;;;;;6.80;1.77;;;24.00;53.80;;;;;;5079928;28;20043;-73
2023/06/14 09:39:55;;;;;;;7.85;1.70;;;24.00;53.90;;;;;;5078335;28;20043;-73
2023/06/14 09:42:21;;;;;;;6.70;1.85;;;24.00;53.40;;;;;;5078825;28;20039;-73
2023/06/14 09:44:51;;;;;;;4.75;1.70;;;24.10;53.30;;;;;;5078369;28;20407;-73
2023/06/14 09:47:16;;;;;;;8.35;2.33;;;24.20;53.20;;;;;;5111259;28;20043;-73
2023/06/14 09:49:42;;;;;;;5.05;2.05;;;24.20;53.50;;;;;;5092764;28;20583;-73
2023/06/14 09:52:20;;;;;;;4.47;1.93;;;24.30;52.80;;;;;;5088032;28;20099;-75
2023/06/14 09:54:47;;;;;;;6.80;1.90;;;24.20;51.90;;;;;;5072464;28;20055;-73
2023/06/14 09:57:14;;;;;;;5.20;1.95;;;24.10;52.20;;;;;;5091002;28;20039;-72
2023/06/14 09:59:43;;;;;;;3.33;1.40;;;24.10;51.20;;;;;;5106802;28;20056;-73
2023/06/14 10:02:24;;;;;;;8.88;2.00;;;24.10;51.00;;;;;;5079402;28;20089;-73
2023/06/14 10:05:03;;;;;;;12.55;2.30;;;24.10;51.50;;;;;;5074282;28;20122;-74
2023/06/14 10:07:40;;;;;;;5.45;1.92;;;24.10;51.40;;;;;;5075289;28;20047;-74
2023/06/14 10:10:06;;;;;;;4.40;1.58;;;24.20;51.50;;;;;;5094777;28;20087;-73
2023/06/14 10:12:32;;;;;;;7.97;1.80;;;24.30;51.80;;;;;;5073079;28;20059;-74
2023/06/14 10:14:58;;;;;;;7.40;2.17;;;24.40;52.20;;;;;;5079681;28;20156;-77
2023/06/14 10:17:50;;;;;;;6.75;2.38;;;24.50;52.30;;;;;;5091684;27;20044;-73
2023/06/14 10:20:49;;;;;;;5.38;2.00;;;24.60;51.30;;;;;;5078979;28;20077;-74
2023/06/14 10:23:22;;;;;;;19.05;2.80;;;24.60;51.30;;;;;;5091285;28;20070;-74
2023/06/14 10:25:56;;;;;;;11.50;2.30;;;24.60;50.40;;;;;;5100918;28;20043;-74
2023/06/14 10:28:23;;;;;;;10.07;2.28;;;24.60;50.80;;;;;;5098228;28;20410;-73
2023/06/14 10:31:08;;;;;;;5.30;2.05;;;24.60;51.20;;;;;;5081568;28;20088;-71
2023/06/14 10:33:36;;;;;;;6.33;2.00;;;24.60;50.90;;;;;;5067495;28;20051;-72
2023/06/14 10:36:08;;;;;;;5.75;1.83;;;24.70;51.40;;;;;;5082627;28;20126;-73
2023/06/14 10:38:36;;;;;;;5.72;1.70;;;24.70;51.80;;;;;;5077391;28;20120;-74
2023/06/14 10:41:02;;;;;;;4.05;1.98;;;24.80;51.40;;;;;;5082494;28;20821;-74
2023/06/14 10:43:28;;;;;;;17.03;2.67;;;24.90;51.90;;;;;;5080992;28;20565;-75
2023/06/14 10:46:13;;;;;;;9.32;1.90;;;25.00;52.30;;;;;;5083470;28;20118;-74
2023/06/14 10:48:44;;;;;;;6.20;1.90;;;25.00;51.00;;;;;;5080193;28;20039;-72
2023/06/14 10:51:20;;;;;;;4.57;1.88;;;25.00;51.20;;;;;;5082679;28;20138;-73
2023/06/14 10:53:51;;;;;;;15.10;3.08;;;25.10;51.20;;;;;;5080175;28;20036;-73
2023/06/14 10:56:30;;;;;;;8.13;2.10;;;25.20;51.50;;;;;;5098541;28;20042;-76
2023/06/14 10:58:59;;;;;;;3.88;1.90;;;25.20;51.00;;;;;;5094847;28;20138;-74
2023/06/14 11:01:47;;;;;;;6.57;1.70;;;25.20;50.90;;;;;;5098582;28;22105;-74
2023/06/14 11:04:12;;;;;;;3.55;1.83;;;25.20;50.40;;;;;;5072517;28;20126;-75
2023/06/14 11:06:48;;;;;;;4.72;2.10;;;25.20;51.20;;;;;;5076916;28;20127;-75
2023/06/14 11:09:22;;;;;;;8.63;2.25;;;25.20;51.40;;;;;;5067930;28;20143;-76
2023/06/14 11:11:48;;;;;;;4.07;1.70;;;25.40;51.20;;;;;;5068336;28;20075;-73
2023/06/14 11:14:14;;;;;;;4.35;1.98;;;25.40;51.30;;;;;;5085414;28;20031;-72
2023/06/14 11:16:40;;;;;;;4.75;1.83;;;25.40;51.20;;;;;;5089094;28;20077;-75
2023/06/14 11:19:06;;;;;;;4.22;1.80;;;25.50;51.00;;;;;;5088085;27;20052;-74
2023/06/14 11:21:33;;;;;;;3.03;2.08;;;25.50;51.40;;;;;;5066797;28;20136;-73
2023/06/14 11:23:59;;;;;;;3.35;2.10;;;25.60;52.00;;;;;;5074580;28;20031;-72
2023/06/14 11:26:33;;;;;;;7.33;2.30;;;25.70;51.80;;;;;;5064984;28;20040;-74
2023/06/14 11:29:00;;;;;;;5.05;2.08;;;25.80;51.40;;;;;;5074502;28;20503;-76
2023/06/14 11:31:26;;;;;;;;;;;25.70;50.80;;;;;;5085019;28;20031;-74
2023/06/14 11:33:59;;;;;;;3.65;2.05;;;25.80;53.70;;;;;;5076850;28;20428;-75
2023/06/14 11:36:31;;;;;;;6.57;1.80;;;25.90;52.00;;;;;;5092119;28;20043;-76
2023/06/14 11:39:06;;;;;;;4.25;1.92;;;25.90;51.70;;;;;;5109409;27;20067;-77
2023/06/14 11:41:52;;;;;;;4.57;2.03;;;26.00;50.50;;;;;;5091973;28;20169;-75
2023/06/14 11:44:18;;;;;;;9.68;2.22;;;26.00;52.40;;;;;;5074085;28;20091;-74
2023/06/14 11:46:44;;;;;;;6.27;2.30;;;26.00;51.50;;;;;;5086383;27;20032;-70
2023/06/14 11:49:10;;;;;;;3.72;2.05;;;26.10;50.90;;;;;;5074443;28;20055;-72
2023/06/14 11:51:36;;;;;;;4.67;2.17;;;26.10;50.90;;;;;;5088811;27;21740;-72
2023/06/14 11:54:03;;;;;;;5.50;2.03;;;26.10;51.00;;;;;;5058650;28;20796;-72
2023/06/14 11:56:32;;;;;;;5.05;2.30;;;26.30;51.40;;;;;;5086215;28;20384;-71
2023/06/14 11:58:58;;;;;;;4.55;1.80;;;26.30;50.60;;;;;;5069536;28;20043;-71
2023/06/14 12:01:24;;;;;;;3.72;1.85;;;26.30;50.90;;;;;;5085807;28;20044;-72
2023/06/14 12:03:54;;;;;;;4.63;2.20;;;26.40;50.50;;;;;;5072910;28;20135;-71
2023/06/14 12:06:28;;;;;;;9.82;2.20;;;26.40;50.10;;;;;;5079085;28;20062;-71
2023/06/14 12:08:56;;;;;;;4.75;2.35;;;26.40;50.40;;;;;;5074672;28;20194;-71
2023/06/14 12:11:22;;;;;;;6.15;1.90;;;26.40;51.20;;;;;;5084153;28;20573;-71
2023/06/14 12:13:49;;;;;;;3.85;1.92;;;26.50;51.60;;;;;;5081282;28;21275;-71
2023/06/14 12:16:14;;;;;;;6.10;1.85;;;26.50;51.10;;;;;;5077240;27;20051;-71
2023/06/14 12:18:43;;;;;;;3.00;1.80;;;26.50;51.10;;;;;;5066151;28;20043;-72
2023/06/14 12:21:10;;;;;;;5.18;1.98;;;26.50;51.00;;;;;;5072106;28;20051;-72
2023/06/14 12:23:48;;;;;;;5.03;1.92;;;26.50;51.20;;;;;;5081865;28;20039;-71
2023/06/14 12:26:15;;;;;;;4.40;1.90;;;26.50;51.10;;;;;;5070261;28;20498;-72
2023/06/14 12:28:43;;;;;;;2.50;1.92;;;26.60;51.40;;;;;;5077548;28;20383;-71
2023/06/14 12:31:08;;;;;;;4.47;2.00;;;26.60;50.50;;;;;;5076241;28;20051;-72
2023/06/14 12:33:34;;;;;;;6.00;2.28;;;26.50;50.10;;;;;;5065771;28;20039;-74
2023/06/14 12:36:02;;;;;;;7.63;2.10;;;26.60;50.70;;;;;;5060499;28;20043;-74
2023/06/14 12:38:28;;;;;;;5.82;2.15;;;26.70;50.60;;;;;;5065855;28;20089;-73
2023/06/14 12:40:54;;;;;;;2.97;1.73;;;26.70;49.50;;;;;;5077663;28;22670;-73
2023/06/14 12:43:19;;;;;;;4.03;2.23;;;26.70;50.30;;;;;;5074568;28;20039;-71
2023/06/14 12:45:45;;;;;;;2.58;1.90;;;26.70;50.20;;;;;;5094347;27;20043;-72
2023/06/14 12:48:10;;;;;;;1.80;1.70;;;26.80;50.20;;;;;;5092184;28;20082;-71
2023/06/14 12:50:36;;;;;;;9.93;1.95;;;26.80;49.70;;;;;;5093568;28;21115;-73